sensor_id;sensor_type;location;lat;lon;timestamp;P1;durP1;ratioP1;P2;durP2;ratioP2
32319;SDS011;19080;51.750;5.888;2024-01-30T00:01:55;16.58;;;12.50;;
32319;SDS011;19080;51.750;5.888;2024-01-30T00:04:22;16.77;;;11.90;;
32319;SDS011;19080;51.750;5.888;2024-01-30T00:06:50;20.65;;;12.27;;
32319;SDS011;19080;51.750;5.888;2024-01-30T00:09:17;18.67;;;12.52;;
32319;SDS011;19080;51.750;5.888;2024-01-30T00:11:44;17.05;;;12.68;;
32319;SDS011;19080;51.750;5.888;2024-01-30T00:14:10;16.63;;;13.45;;
32319;SDS011;19080;51.750;5.888;2024-01-30T00:16:37;17.67;;;13.00;;
32319;SDS011;19080;51.750;5.888;2024-01-30T00:19:04;18.13;;;13.70;;
32319;SDS011;19080;51.750;5.888;2024-01-30T00:21:30;15.52;;;11.90;;
32319;SDS011;19080;51.750;5.888;2024-01-30T00:23:57;17.60;;;12.25;;
32319;SDS011;19080;51.750;5.888;2024-01-30T00:26:23;15.65;;;13.02;;
32319;SDS011;19080;51.750;5.888;2024-01-30T00:28:50;17.00;;;13.55;;
32319;SDS011;19080;51.750;5.888;2024-01-30T00:31:17;20.25;;;13.93;;
32319;SDS011;19080;51.750;5.888;2024-01-30T00:33:43;16.38;;;12.85;;
32319;SDS011;19080;51.750;5.888;2024-01-30T00:36:10;19.10;;;14.20;;
32319;SDS011;19080;51.750;5.888;2024-01-30T00:38:37;23.30;;;14.23;;
32319;SDS011;19080;51.750;5.888;2024-01-30T00:41:04;18.83;;;13.90;;
32319;SDS011;19080;51.750;5.888;2024-01-30T00:43:31;22.92;;;14.40;;
32319;SDS011;19080;51.750;5.888;2024-01-30T00:45:58;21.25;;;14.57;;
32319;SDS011;19080;51.750;5.888;2024-01-30T00:48:25;19.95;;;13.90;;
32319;SDS011;19080;51.750;5.888;2024-01-30T00:50:52;17.08;;;14.02;;
32319;SDS011;19080;51.750;5.888;2024-01-30T00:53:19;18.25;;;13.95;;
32319;SDS011;19080;51.750;5.888;2024-01-30T00:55:45;19.88;;;13.90;;
32319;SDS011;19080;51.750;5.888;2024-01-30T00:58:12;20.77;;;14.18;;
32319;SDS011;19080;51.750;5.888;2024-01-30T01:00:39;19.33;;;13.63;;
32319;SDS011;19080;51.750;5.888;2024-01-30T01:03:06;18.38;;;14.23;;
32319;SDS011;19080;51.750;5.888;2024-01-30T01:05:33;20.15;;;14.60;;
32319;SDS011;19080;51.750;5.888;2024-01-30T01:07:59;16.90;;;13.15;;
32319;SDS011;19080;51.750;5.888;2024-01-30T01:10:26;21.88;;;14.40;;
32319;SDS011;19080;51.750;5.888;2024-01-30T01:12:53;18.33;;;13.30;;
32319;SDS011;19080;51.750;5.888;2024-01-30T01:15:20;22.30;;;13.80;;
32319;SDS011;19080;51.750;5.888;2024-01-30T01:17:47;17.35;;;13.30;;
32319;SDS011;19080;51.750;5.888;2024-01-30T01:20:13;16.65;;;13.30;;
32319;SDS011;19080;51.750;5.888;2024-01-30T01:22:40;18.92;;;13.70;;
32319;SDS011;19080;51.750;5.888;2024-01-30T01:25:08;18.40;;;13.73;;
32319;SDS011;19080;51.750;5.888;2024-01-30T01:27:35;16.35;;;13.25;;
32319;SDS011;19080;51.750;5.888;2024-01-30T01:30:08;17.07;;;13.20;;
32319;SDS011;19080;51.750;5.888;2024-01-30T01:32:36;20.58;;;13.20;;
32319;SDS011;19080;51.750;5.888;2024-01-30T01:35:03;15.23;;;12.40;;
32319;SDS011;19080;51.750;5.888;2024-01-30T01:37:32;20.30;;;13.93;;
32319;SDS011;19080;51.750;5.888;2024-01-30T01:39:59;16.10;;;13.05;;
32319;SDS011;19080;51.750;5.888;2024-01-30T01:42:26;15.43;;;12.32;;
32319;SDS011;19080;51.750;5.888;2024-01-30T01:44:53;15.73;;;13.50;;
32319;SDS011;19080;51.750;5.888;2024-01-30T01:47:19;15.98;;;11.90;;
32319;SDS011;19080;51.750;5.888;2024-01-30T01:49:47;16.95;;;13.32;;
32319;SDS011;19080;51.750;5.888;2024-01-30T01:52:14;17.58;;;12.82;;
32319;SDS011;19080;51.750;5.888;2024-01-30T01:54:41;14.98;;;12.07;;
32319;SDS011;19080;51.750;5.888;2024-01-30T01:57:08;16.42;;;12.55;;
32319;SDS011;19080;51.750;5.888;2024-01-30T01:59:36;15.23;;;12.38;;
32319;SDS011;19080;51.750;5.888;2024-01-30T02:02:03;15.02;;;12.60;;
32319;SDS011;19080;51.750;5.888;2024-01-30T02:04:31;18.80;;;12.40;;
32319;SDS011;19080;51.750;5.888;2024-01-30T02:06:57;18.27;;;12.18;;
32319;SDS011;19080;51.750;5.888;2024-01-30T02:09:25;14.27;;;11.07;;
32319;SDS011;19080;51.750;5.888;2024-01-30T02:11:51;15.02;;;11.23;;
32319;SDS011;19080;51.750;5.888;2024-01-30T02:14:19;17.08;;;11.20;;
32319;SDS011;19080;51.750;5.888;2024-01-30T02:16:46;14.82;;;10.40;;
32319;SDS011;19080;51.750;5.888;2024-01-30T02:19:12;16.40;;;11.60;;
32319;SDS011;19080;51.750;5.888;2024-01-30T02:21:39;12.98;;;10.55;;
32319;SDS011;19080;51.750;5.888;2024-01-30T02:24:06;16.63;;;11.55;;
32319;SDS011;19080;51.750;5.888;2024-01-30T02:26:32;15.45;;;10.70;;
32319;SDS011;19080;51.750;5.888;2024-01-30T02:28:59;14.60;;;10.20;;
32319;SDS011;19080;51.750;5.888;2024-01-30T02:31:26;12.10;;;10.43;;
32319;SDS011;19080;51.750;5.888;2024-01-30T02:33:53;13.00;;;10.93;;
32319;SDS011;19080;51.750;5.888;2024-01-30T02:36:19;15.48;;;10.77;;
32319;SDS011;19080;51.750;5.888;2024-01-30T02:38:46;16.60;;;11.88;;
32319;SDS011;19080;51.750;5.888;2024-01-30T02:41:13;15.45;;;10.43;;
32319;SDS011;19080;51.750;5.888;2024-01-30T02:43:40;12.73;;;10.15;;
32319;SDS011;19080;51.750;5.888;2024-01-30T02:46:07;14.80;;;10.93;;
32319;SDS011;19080;51.750;5.888;2024-01-30T02:48:33;13.93;;;10.05;;
32319;SDS011;19080;51.750;5.888;2024-01-30T02:51:00;13.48;;;10.68;;
32319;SDS011;19080;51.750;5.888;2024-01-30T02:53:27;13.13;;;9.98;;
32319;SDS011;19080;51.750;5.888;2024-01-30T02:55:53;16.05;;;11.48;;
32319;SDS011;19080;51.750;5.888;2024-01-30T02:58:20;13.73;;;10.50;;
32319;SDS011;19080;51.750;5.888;2024-01-30T03:00:46;15.63;;;11.55;;
32319;SDS011;19080;51.750;5.888;2024-01-30T03:03:13;14.27;;;11.23;;
32319;SDS011;19080;51.750;5.888;2024-01-30T03:05:40;13.77;;;11.07;;
32319;SDS011;19080;51.750;5.888;2024-01-30T03:08:06;20.08;;;12.50;;
32319;SDS011;19080;51.750;5.888;2024-01-30T03:10:33;14.48;;;10.43;;
32319;SDS011;19080;51.750;5.888;2024-01-30T03:13:00;16.70;;;11.82;;
32319;SDS011;19080;51.750;5.888;2024-01-30T03:15:27;19.60;;;11.57;;
32319;SDS011;19080;51.750;5.888;2024-01-30T03:17:53;14.82;;;11.50;;
32319;SDS011;19080;51.750;5.888;2024-01-30T03:20:20;18.20;;;11.27;;
32319;SDS011;19080;51.750;5.888;2024-01-30T03:22:47;14.40;;;11.00;;
32319;SDS011;19080;51.750;5.888;2024-01-30T03:25:13;17.48;;;11.88;;
32319;SDS011;19080;51.750;5.888;2024-01-30T03:27:40;15.52;;;11.00;;
32319;SDS011;19080;51.750;5.888;2024-01-30T03:30:07;18.70;;;11.85;;
32319;SDS011;19080;51.750;5.888;2024-01-30T03:32:34;16.83;;;10.90;;
32319;SDS011;19080;51.750;5.888;2024-01-30T03:35:01;15.20;;;11.88;;
32319;SDS011;19080;51.750;5.888;2024-01-30T03:37:28;13.00;;;11.10;;
32319;SDS011;19080;51.750;5.888;2024-01-30T03:39:55;14.20;;;11.27;;
32319;SDS011;19080;51.750;5.888;2024-01-30T03:42:21;14.80;;;11.80;;
32319;SDS011;19080;51.750;5.888;2024-01-30T03:44:48;14.85;;;11.15;;
32319;SDS011;19080;51.750;5.888;2024-01-30T03:47:18;17.52;;;11.10;;
32319;SDS011;19080;51.750;5.888;2024-01-30T03:49:45;15.48;;;11.18;;
32319;SDS011;19080;51.750;5.888;2024-01-30T03:52:12;16.95;;;11.43;;
32319;SDS011;19080;51.750;5.888;2024-01-30T03:54:39;16.15;;;11.57;;
32319;SDS011;19080;51.750;5.888;2024-01-30T03:57:05;15.68;;;11.40;;
32319;SDS011;19080;51.750;5.888;2024-01-30T03:59:32;14.60;;;10.52;;
32319;SDS011;19080;51.750;5.888;2024-01-30T04:01:59;16.15;;;10.13;;
32319;SDS011;19080;51.750;5.888;2024-01-30T04:04:26;13.10;;;10.93;;
32319;SDS011;19080;51.750;5.888;2024-01-30T04:06:53;18.50;;;11.52;;
32319;SDS011;19080;51.750;5.888;2024-01-30T04:09:20;15.45;;;11.35;;
32319;SDS011;19080;51.750;5.888;2024-01-30T04:11:46;15.93;;;11.02;;
32319;SDS011;19080;51.750;5.888;2024-01-30T04:14:13;13.10;;;10.68;;
32319;SDS011;19080;51.750;5.888;2024-01-30T04:16:40;18.27;;;11.77;;
32319;SDS011;19080;51.750;5.888;2024-01-30T04:19:06;17.13;;;11.40;;
32319;SDS011;19080;51.750;5.888;2024-01-30T04:21:33;17.23;;;11.23;;
32319;SDS011;19080;51.750;5.888;2024-01-30T04:24:00;21.20;;;11.65;;
32319;SDS011;19080;51.750;5.888;2024-01-30T04:26:26;16.73;;;10.70;;
32319;SDS011;19080;51.750;5.888;2024-01-30T04:28:53;14.85;;;10.38;;
32319;SDS011;19080;51.750;5.888;2024-01-30T04:31:20;16.50;;;11.52;;
32319;SDS011;19080;51.750;5.888;2024-01-30T04:33:47;17.52;;;11.18;;
32319;SDS011;19080;51.750;5.888;2024-01-30T04:36:13;13.60;;;10.73;;
32319;SDS011;19080;51.750;5.888;2024-01-30T04:38:40;13.10;;;10.10;;
32319;SDS011;19080;51.750;5.888;2024-01-30T04:41:07;14.40;;;9.95;;
32319;SDS011;19080;51.750;5.888;2024-01-30T04:43:33;16.48;;;10.77;;
32319;SDS011;19080;51.750;5.888;2024-01-30T04:46:00;17.17;;;11.00;;
32319;SDS011;19080;51.750;5.888;2024-01-30T04:48:27;15.73;;;11.30;;
32319;SDS011;19080;51.750;5.888;2024-01-30T04:50:54;16.05;;;11.00;;
32319;SDS011;19080;51.750;5.888;2024-01-30T04:53:22;14.38;;;10.60;;
32319;SDS011;19080;51.750;5.888;2024-01-30T04:55:49;15.98;;;10.73;;
32319;SDS011;19080;51.750;5.888;2024-01-30T04:58:16;14.88;;;9.98;;
32319;SDS011;19080;51.750;5.888;2024-01-30T05:00:42;14.82;;;9.45;;
32319;SDS011;19080;51.750;5.888;2024-01-30T05:03:09;12.05;;;10.10;;
32319;SDS011;19080;51.750;5.888;2024-01-30T05:05:36;15.20;;;9.85;;
32319;SDS011;19080;51.750;5.888;2024-01-30T05:08:03;14.20;;;10.30;;
32319;SDS011;19080;51.750;5.888;2024-01-30T05:10:29;19.23;;;11.48;;
32319;SDS011;19080;51.750;5.888;2024-01-30T05:12:56;14.40;;;10.10;;
32319;SDS011;19080;51.750;5.888;2024-01-30T05:15:23;16.05;;;10.05;;
32319;SDS011;19080;51.750;5.888;2024-01-30T05:17:49;11.98;;;9.27;;
32319;SDS011;19080;51.750;5.888;2024-01-30T05:20:16;14.25;;;10.23;;
32319;SDS011;19080;51.750;5.888;2024-01-30T05:22:43;15.35;;;10.15;;
32319;SDS011;19080;51.750;5.888;2024-01-30T05:25:14;11.98;;;9.18;;
32319;SDS011;19080;51.750;5.888;2024-01-30T05:27:41;12.90;;;9.38;;
32319;SDS011;19080;51.750;5.888;2024-01-30T05:30:08;13.80;;;9.93;;
32319;SDS011;19080;51.750;5.888;2024-01-30T05:32:35;13.68;;;9.82;;
32319;SDS011;19080;51.750;5.888;2024-01-30T05:35:02;13.70;;;9.93;;
32319;SDS011;19080;51.750;5.888;2024-01-30T05:37:29;16.35;;;10.30;;
32319;SDS011;19080;51.750;5.888;2024-01-30T05:39:56;10.73;;;9.07;;
32319;SDS011;19080;51.750;5.888;2024-01-30T05:42:22;13.75;;;9.32;;
32319;SDS011;19080;51.750;5.888;2024-01-30T05:44:49;12.77;;;9.07;;
32319;SDS011;19080;51.750;5.888;2024-01-30T05:47:16;14.05;;;9.90;;
32319;SDS011;19080;51.750;5.888;2024-01-30T05:49:42;14.30;;;9.23;;
32319;SDS011;19080;51.750;5.888;2024-01-30T05:52:09;12.00;;;9.02;;
32319;SDS011;19080;51.750;5.888;2024-01-30T05:54:36;15.57;;;9.25;;
32319;SDS011;19080;51.750;5.888;2024-01-30T05:57:03;13.25;;;10.00;;
32319;SDS011;19080;51.750;5.888;2024-01-30T05:59:29;10.82;;;9.30;;
32319;SDS011;19080;51.750;5.888;2024-01-30T06:01:56;11.15;;;8.82;;
32319;SDS011;19080;51.750;5.888;2024-01-30T06:04:23;11.48;;;9.10;;
32319;SDS011;19080;51.750;5.888;2024-01-30T06:06:50;11.07;;;8.60;;
32319;SDS011;19080;51.750;5.888;2024-01-30T06:09:17;11.65;;;8.85;;
32319;SDS011;19080;51.750;5.888;2024-01-30T06:11:45;12.00;;;8.85;;
32319;SDS011;19080;51.750;5.888;2024-01-30T06:14:11;10.88;;;8.88;;
32319;SDS011;19080;51.750;5.888;2024-01-30T06:16:38;11.90;;;8.88;;
32319;SDS011;19080;51.750;5.888;2024-01-30T06:19:05;12.05;;;8.77;;
32319;SDS011;19080;51.750;5.888;2024-01-30T06:21:32;13.85;;;8.85;;
32319;SDS011;19080;51.750;5.888;2024-01-30T06:24:02;11.32;;;8.45;;
32319;SDS011;19080;51.750;5.888;2024-01-30T06:26:29;11.10;;;8.55;;
32319;SDS011;19080;51.750;5.888;2024-01-30T06:28:56;10.98;;;8.10;;
32319;SDS011;19080;51.750;5.888;2024-01-30T06:31:23;11.32;;;8.35;;
32319;SDS011;19080;51.750;5.888;2024-01-30T06:33:50;14.27;;;8.65;;
32319;SDS011;19080;51.750;5.888;2024-01-30T06:36:17;9.65;;;7.90;;
32319;SDS011;19080;51.750;5.888;2024-01-30T06:38:44;9.32;;;7.70;;
32319;SDS011;19080;51.750;5.888;2024-01-30T06:41:10;9.60;;;8.55;;
32319;SDS011;19080;51.750;5.888;2024-01-30T06:43:37;11.40;;;8.30;;
32319;SDS011;19080;51.750;5.888;2024-01-30T06:46:04;11.23;;;7.88;;
32319;SDS011;19080;51.750;5.888;2024-01-30T06:48:30;10.07;;;7.50;;
32319;SDS011;19080;51.750;5.888;2024-01-30T06:50:57;12.57;;;7.82;;
32319;SDS011;19080;51.750;5.888;2024-01-30T06:53:24;9.25;;;7.68;;
32319;SDS011;19080;51.750;5.888;2024-01-30T06:55:52;8.77;;;7.82;;
32319;SDS011;19080;51.750;5.888;2024-01-30T06:58:19;8.43;;;7.30;;
32319;SDS011;19080;51.750;5.888;2024-01-30T07:00:46;11.07;;;8.25;;
32319;SDS011;19080;51.750;5.888;2024-01-30T07:03:12;11.07;;;8.55;;
32319;SDS011;19080;51.750;5.888;2024-01-30T07:05:39;10.63;;;7.93;;
32319;SDS011;19080;51.750;5.888;2024-01-30T07:08:06;11.25;;;8.32;;
32319;SDS011;19080;51.750;5.888;2024-01-30T07:10:33;10.57;;;8.10;;
32319;SDS011;19080;51.750;5.888;2024-01-30T07:13:00;12.05;;;8.50;;
32319;SDS011;19080;51.750;5.888;2024-01-30T07:15:27;11.98;;;8.15;;
32319;SDS011;19080;51.750;5.888;2024-01-30T07:17:54;11.70;;;8.50;;
32319;SDS011;19080;51.750;5.888;2024-01-30T07:20:20;10.82;;;8.35;;
32319;SDS011;19080;51.750;5.888;2024-01-30T07:22:47;8.88;;;7.85;;
32319;SDS011;19080;51.750;5.888;2024-01-30T07:25:14;12.63;;;7.95;;
32319;SDS011;19080;51.750;5.888;2024-01-30T07:27:41;13.18;;;8.40;;
32319;SDS011;19080;51.750;5.888;2024-01-30T07:30:08;12.32;;;8.70;;
32319;SDS011;19080;51.750;5.888;2024-01-30T07:32:35;11.43;;;8.80;;
32319;SDS011;19080;51.750;5.888;2024-01-30T07:35:01;10.00;;;7.95;;
32319;SDS011;19080;51.750;5.888;2024-01-30T07:37:34;14.07;;;8.48;;
32319;SDS011;19080;51.750;5.888;2024-01-30T07:40:02;11.38;;;8.13;;
32319;SDS011;19080;51.750;5.888;2024-01-30T07:42:30;11.25;;;8.05;;
32319;SDS011;19080;51.750;5.888;2024-01-30T07:44:57;12.88;;;7.82;;
32319;SDS011;19080;51.750;5.888;2024-01-30T07:47:23;12.27;;;8.32;;
32319;SDS011;19080;51.750;5.888;2024-01-30T07:49:50;10.90;;;9.43;;
32319;SDS011;19080;51.750;5.888;2024-01-30T07:52:17;12.73;;;8.02;;
32319;SDS011;19080;51.750;5.888;2024-01-30T07:54:47;10.32;;;8.00;;
32319;SDS011;19080;51.750;5.888;2024-01-30T07:57:14;9.40;;;7.53;;
32319;SDS011;19080;51.750;5.888;2024-01-30T07:59:44;10.77;;;8.57;;
32319;SDS011;19080;51.750;5.888;2024-01-30T08:02:11;11.43;;;8.35;;
32319;SDS011;19080;51.750;5.888;2024-01-30T08:04:39;9.48;;;7.90;;
32319;SDS011;19080;51.750;5.888;2024-01-30T08:07:06;11.07;;;8.35;;
32319;SDS011;19080;51.750;5.888;2024-01-30T08:09:32;13.05;;;8.15;;
32319;SDS011;19080;51.750;5.888;2024-01-30T08:11:59;10.02;;;7.80;;
32319;SDS011;19080;51.750;5.888;2024-01-30T08:14:26;11.75;;;7.90;;
32319;SDS011;19080;51.750;5.888;2024-01-30T08:16:53;12.93;;;8.13;;
32319;SDS011;19080;51.750;5.888;2024-01-30T08:19:19;10.88;;;8.07;;
32319;SDS011;19080;51.750;5.888;2024-01-30T08:21:46;11.68;;;8.38;;
32319;SDS011;19080;51.750;5.888;2024-01-30T08:24:13;11.57;;;8.23;;
32319;SDS011;19080;51.750;5.888;2024-01-30T08:26:40;9.57;;;7.30;;
32319;SDS011;19080;51.750;5.888;2024-01-30T08:29:06;10.85;;;8.55;;
32319;SDS011;19080;51.750;5.888;2024-01-30T08:31:33;10.50;;;8.48;;
32319;SDS011;19080;51.750;5.888;2024-01-30T08:34:00;9.18;;;8.02;;
32319;SDS011;19080;51.750;5.888;2024-01-30T08:36:27;12.35;;;7.55;;
32319;SDS011;19080;51.750;5.888;2024-01-30T08:38:54;9.23;;;7.53;;
32319;SDS011;19080;51.750;5.888;2024-01-30T08:41:26;8.73;;;7.25;;
32319;SDS011;19080;51.750;5.888;2024-01-30T08:43:53;9.43;;;7.68;;
32319;SDS011;19080;51.750;5.888;2024-01-30T08:46:20;12.07;;;9.35;;
32319;SDS011;19080;51.750;5.888;2024-01-30T08:48:47;11.18;;;7.82;;
32319;SDS011;19080;51.750;5.888;2024-01-30T08:51:14;10.38;;;7.35;;
32319;SDS011;19080;51.750;5.888;2024-01-30T08:53:41;10.13;;;7.32;;
32319;SDS011;19080;51.750;5.888;2024-01-30T08:56:08;9.48;;;8.02;;
32319;SDS011;19080;51.750;5.888;2024-01-30T08:58:35;8.75;;;7.40;;
32319;SDS011;19080;51.750;5.888;2024-01-30T09:01:01;9.40;;;7.50;;
32319;SDS011;19080;51.750;5.888;2024-01-30T09:03:30;11.05;;;7.63;;
32319;SDS011;19080;51.750;5.888;2024-01-30T09:05:57;9.93;;;7.05;;
32319;SDS011;19080;51.750;5.888;2024-01-30T09:08:23;11.35;;;7.22;;
32319;SDS011;19080;51.750;5.888;2024-01-30T09:10:50;10.27;;;6.97;;
32319;SDS011;19080;51.750;5.888;2024-01-30T09:13:17;9.18;;;7.18;;
32319;SDS011;19080;51.750;5.888;2024-01-30T09:15:44;8.75;;;6.35;;
32319;SDS011;19080;51.750;5.888;2024-01-30T09:18:10;9.60;;;7.05;;
32319;SDS011;19080;51.750;5.888;2024-01-30T09:20:37;8.73;;;6.78;;
32319;SDS011;19080;51.750;5.888;2024-01-30T09:23:04;8.82;;;6.45;;
32319;SDS011;19080;51.750;5.888;2024-01-30T09:25:31;9.02;;;6.55;;
32319;SDS011;19080;51.750;5.888;2024-01-30T09:27:57;7.38;;;5.97;;
32319;SDS011;19080;51.750;5.888;2024-01-30T09:30:25;12.05;;;6.10;;
32319;SDS011;19080;51.750;5.888;2024-01-30T09:32:51;7.95;;;6.25;;
32319;SDS011;19080;51.750;5.888;2024-01-30T09:35:18;10.60;;;5.97;;
32319;SDS011;19080;51.750;5.888;2024-01-30T09:37:45;9.27;;;5.90;;
32319;SDS011;19080;51.750;5.888;2024-01-30T09:40:12;8.50;;;5.68;;
32319;SDS011;19080;51.750;5.888;2024-01-30T09:42:39;7.50;;;5.70;;
32319;SDS011;19080;51.750;5.888;2024-01-30T09:45:06;9.20;;;5.88;;
32319;SDS011;19080;51.750;5.888;2024-01-30T09:47:39;6.57;;;5.88;;
32319;SDS011;19080;51.750;5.888;2024-01-30T09:50:11;8.35;;;6.40;;
32319;SDS011;19080;51.750;5.888;2024-01-30T09:52:39;8.73;;;6.55;;
32319;SDS011;19080;51.750;5.888;2024-01-30T09:55:07;9.15;;;6.35;;
32319;SDS011;19080;51.750;5.888;2024-01-30T09:57:34;12.00;;;6.63;;
32319;SDS011;19080;51.750;5.888;2024-01-30T10:00:02;8.80;;;6.97;;
32319;SDS011;19080;51.750;5.888;2024-01-30T10:02:38;9.23;;;6.20;;
32319;SDS011;19080;51.750;5.888;2024-01-30T10:05:05;8.45;;;6.25;;
32319;SDS011;19080;51.750;5.888;2024-01-30T10:07:32;9.73;;;6.65;;
32319;SDS011;19080;51.750;5.888;2024-01-30T10:09:59;10.25;;;6.93;;
32319;SDS011;19080;51.750;5.888;2024-01-30T10:12:26;9.02;;;6.82;;
32319;SDS011;19080;51.750;5.888;2024-01-30T10:14:55;9.40;;;6.63;;
32319;SDS011;19080;51.750;5.888;2024-01-30T10:17:24;9.98;;;7.13;;
32319;SDS011;19080;51.750;5.888;2024-01-30T10:19:59;13.93;;;7.50;;
32319;SDS011;19080;51.750;5.888;2024-01-30T10:22:26;9.25;;;7.07;;
32319;SDS011;19080;51.750;5.888;2024-01-30T10:24:53;8.68;;;7.53;;
32319;SDS011;19080;51.750;5.888;2024-01-30T10:27:26;9.90;;;7.03;;
32319;SDS011;19080;51.750;5.888;2024-01-30T10:29:53;9.15;;;7.13;;
32319;SDS011;19080;51.750;5.888;2024-01-30T10:32:20;9.27;;;7.43;;
32319;SDS011;19080;51.750;5.888;2024-01-30T10:34:47;12.15;;;7.20;;
32319;SDS011;19080;51.750;5.888;2024-01-30T10:37:15;10.98;;;7.80;;
32319;SDS011;19080;51.750;5.888;2024-01-30T10:39:44;9.65;;;7.35;;
32319;SDS011;19080;51.750;5.888;2024-01-30T10:42:15;9.45;;;6.30;;
32319;SDS011;19080;51.750;5.888;2024-01-30T10:47:14;9.80;;;7.07;;
32319;SDS011;19080;51.750;5.888;2024-01-30T10:49:47;9.60;;;6.95;;
32319;SDS011;19080;51.750;5.888;2024-01-30T10:52:15;12.20;;;7.55;;
32319;SDS011;19080;51.750;5.888;2024-01-30T10:54:44;12.48;;;7.38;;
32319;SDS011;19080;51.750;5.888;2024-01-30T10:57:12;10.02;;;6.82;;
32319;SDS011;19080;51.750;5.888;2024-01-30T10:59:39;13.15;;;8.10;;
32319;SDS011;19080;51.750;5.888;2024-01-30T11:02:07;12.68;;;7.45;;
32319;SDS011;19080;51.750;5.888;2024-01-30T11:04:38;12.57;;;7.63;;
32319;SDS011;19080;51.750;5.888;2024-01-30T11:07:14;9.15;;;6.60;;
32319;SDS011;19080;51.750;5.888;2024-01-30T11:09:48;12.27;;;7.45;;
32319;SDS011;19080;51.750;5.888;2024-01-30T11:12:21;18.70;;;7.68;;
32319;SDS011;19080;51.750;5.888;2024-01-30T11:15:10;13.35;;;7.50;;
32319;SDS011;19080;51.750;5.888;2024-01-30T11:17:45;11.02;;;7.25;;
32319;SDS011;19080;51.750;5.888;2024-01-30T11:20:18;11.43;;;6.82;;
32319;SDS011;19080;51.750;5.888;2024-01-30T11:22:50;13.38;;;7.13;;
32319;SDS011;19080;51.750;5.888;2024-01-30T11:25:22;14.90;;;7.50;;
32319;SDS011;19080;51.750;5.888;2024-01-30T11:27:53;10.77;;;6.95;;
32319;SDS011;19080;51.750;5.888;2024-01-30T11:30:28;15.07;;;7.10;;
32319;SDS011;19080;51.750;5.888;2024-01-30T11:33:07;9.68;;;6.63;;
32319;SDS011;19080;51.750;5.888;2024-01-30T11:35:36;13.30;;;7.40;;
32319;SDS011;19080;51.750;5.888;2024-01-30T11:38:10;14.02;;;7.30;;
32319;SDS011;19080;51.750;5.888;2024-01-30T11:40:39;10.52;;;7.10;;
32319;SDS011;19080;51.750;5.888;2024-01-30T11:43:07;11.32;;;6.85;;
32319;SDS011;19080;51.750;5.888;2024-01-30T11:45:35;14.02;;;7.35;;
32319;SDS011;19080;51.750;5.888;2024-01-30T11:48:03;13.60;;;7.25;;
32319;SDS011;19080;51.750;5.888;2024-01-30T11:50:31;13.98;;;7.20;;
32319;SDS011;19080;51.750;5.888;2024-01-30T11:52:59;13.32;;;7.50;;
32319;SDS011;19080;51.750;5.888;2024-01-30T11:55:27;13.60;;;6.20;;
32319;SDS011;19080;51.750;5.888;2024-01-30T11:58:00;12.15;;;6.05;;
32319;SDS011;19080;51.750;5.888;2024-01-30T12:00:27;9.60;;;5.30;;
32319;SDS011;19080;51.750;5.888;2024-01-30T12:02:54;9.80;;;6.28;;
32319;SDS011;19080;51.750;5.888;2024-01-30T12:05:25;9.43;;;5.72;;
32319;SDS011;19080;51.750;5.888;2024-01-30T12:07:53;7.40;;;5.13;;
32319;SDS011;19080;51.750;5.888;2024-01-30T12:10:20;13.30;;;6.18;;
32319;SDS011;19080;51.750;5.888;2024-01-30T12:12:48;11.65;;;6.07;;
32319;SDS011;19080;51.750;5.888;2024-01-30T12:15:16;11.10;;;5.07;;
32319;SDS011;19080;51.750;5.888;2024-01-30T12:17:45;9.23;;;5.38;;
32319;SDS011;19080;51.750;5.888;2024-01-30T12:20:12;12.10;;;6.25;;
32319;SDS011;19080;51.750;5.888;2024-01-30T12:22:45;12.25;;;5.93;;
32319;SDS011;19080;51.750;5.888;2024-01-30T12:25:14;11.30;;;6.05;;
32319;SDS011;19080;51.750;5.888;2024-01-30T12:27:43;9.73;;;4.75;;
32319;SDS011;19080;51.750;5.888;2024-01-30T12:30:18;10.93;;;4.95;;
32319;SDS011;19080;51.750;5.888;2024-01-30T12:32:49;8.80;;;4.70;;
32319;SDS011;19080;51.750;5.888;2024-01-30T12:35:18;6.38;;;3.78;;
32319;SDS011;19080;51.750;5.888;2024-01-30T12:37:46;10.65;;;4.20;;
32319;SDS011;19080;51.750;5.888;2024-01-30T12:40:13;6.00;;;3.70;;
32319;SDS011;19080;51.750;5.888;2024-01-30T12:42:45;5.85;;;3.83;;
32319;SDS011;19080;51.750;5.888;2024-01-30T12:45:15;7.72;;;3.70;;
32319;SDS011;19080;51.750;5.888;2024-01-30T12:47:42;8.65;;;3.78;;
32319;SDS011;19080;51.750;5.888;2024-01-30T12:50:09;9.18;;;4.45;;
32319;SDS011;19080;51.750;5.888;2024-01-30T12:52:36;9.23;;;3.67;;
32319;SDS011;19080;51.750;5.888;2024-01-30T12:55:03;9.45;;;4.32;;
32319;SDS011;19080;51.750;5.888;2024-01-30T12:57:30;7.93;;;5.25;;
32319;SDS011;19080;51.750;5.888;2024-01-30T12:59:57;9.18;;;5.38;;
32319;SDS011;19080;51.750;5.888;2024-01-30T13:02:24;11.88;;;6.93;;
32319;SDS011;19080;51.750;5.888;2024-01-30T13:04:54;6.95;;;3.55;;
32319;SDS011;19080;51.750;5.888;2024-01-30T13:07:21;8.23;;;3.55;;
32319;SDS011;19080;51.750;5.888;2024-01-30T13:09:47;8.02;;;4.03;;
32319;SDS011;19080;51.750;5.888;2024-01-30T13:12:14;8.80;;;4.53;;
32319;SDS011;19080;51.750;5.888;2024-01-30T13:14:41;15.70;;;6.57;;
32319;SDS011;19080;51.750;5.888;2024-01-30T13:17:07;11.35;;;6.10;;
32319;SDS011;19080;51.750;5.888;2024-01-30T13:19:34;6.32;;;3.70;;
32319;SDS011;19080;51.750;5.888;2024-01-30T13:22:01;14.18;;;5.82;;
32319;SDS011;19080;51.750;5.888;2024-01-30T13:24:28;10.65;;;4.60;;
32319;SDS011;19080;51.750;5.888;2024-01-30T13:26:54;18.00;;;8.85;;
32319;SDS011;19080;51.750;5.888;2024-01-30T13:29:21;9.63;;;4.57;;
32319;SDS011;19080;51.750;5.888;2024-01-30T13:31:47;10.50;;;3.97;;
32319;SDS011;19080;51.750;5.888;2024-01-30T13:34:14;6.93;;;3.55;;
32319;SDS011;19080;51.750;5.888;2024-01-30T13:36:41;6.40;;;5.15;;
32319;SDS011;19080;51.750;5.888;2024-01-30T13:39:08;7.55;;;3.13;;
32319;SDS011;19080;51.750;5.888;2024-01-30T13:41:37;3.45;;;2.40;;
32319;SDS011;19080;51.750;5.888;2024-01-30T13:44:04;5.13;;;1.52;;
32319;SDS011;19080;51.750;5.888;2024-01-30T13:46:31;3.28;;;2.55;;
32319;SDS011;19080;51.750;5.888;2024-01-30T13:48:58;4.10;;;1.88;;
32319;SDS011;19080;51.750;5.888;2024-01-30T13:51:25;3.15;;;1.30;;
32319;SDS011;19080;51.750;5.888;2024-01-30T13:53:51;2.03;;;1.20;;
32319;SDS011;19080;51.750;5.888;2024-01-30T13:56:19;3.20;;;1.20;;
32319;SDS011;19080;51.750;5.888;2024-01-30T13:58:50;2.45;;;1.23;;
32319;SDS011;19080;51.750;5.888;2024-01-30T14:01:17;4.25;;;1.08;;
32319;SDS011;19080;51.750;5.888;2024-01-30T14:03:44;2.47;;;1.27;;
32319;SDS011;19080;51.750;5.888;2024-01-30T14:06:11;4.15;;;1.50;;
32319;SDS011;19080;51.750;5.888;2024-01-30T14:08:38;1.98;;;1.60;;
32319;SDS011;19080;51.750;5.888;2024-01-30T14:11:05;5.30;;;1.05;;
32319;SDS011;19080;51.750;5.888;2024-01-30T14:13:31;2.13;;;0.82;;
32319;SDS011;19080;51.750;5.888;2024-01-30T14:15:59;3.85;;;1.40;;
32319;SDS011;19080;51.750;5.888;2024-01-30T14:18:26;2.97;;;1.40;;
32319;SDS011;19080;51.750;5.888;2024-01-30T14:20:53;5.53;;;1.15;;
32319;SDS011;19080;51.750;5.888;2024-01-30T14:23:20;2.60;;;1.00;;
32319;SDS011;19080;51.750;5.888;2024-01-30T14:25:48;4.90;;;0.98;;
32319;SDS011;19080;51.750;5.888;2024-01-30T14:28:15;4.70;;;0.95;;
32319;SDS011;19080;51.750;5.888;2024-01-30T14:30:42;2.83;;;0.90;;
32319;SDS011;19080;51.750;5.888;2024-01-30T14:33:08;2.15;;;0.63;;
32319;SDS011;19080;51.750;5.888;2024-01-30T14:35:35;2.88;;;1.35;;
32319;SDS011;19080;51.750;5.888;2024-01-30T14:38:02;2.05;;;0.77;;